Time;durP1;ratioP1;P1;durP2;ratioP2;P2;SDS_P1;SDS_P2;PMS_P1;PMS_P2;Temp;Humidity;BMP_temperature;BMP_pressure;BME280_temperature;BME280_humidity;BME280_pressure;Samples;Min_cycle;Max_cycle;Signal;HPM_P1;HPM_P2
2023/06/27 00:01:23;;;;;;;;;;;16.40;79.30;;;;;;5003498;28;19929;-44
2023/06/27 00:03:51;;;;;;;;;;;16.40;79.40;;;;;;5047371;28;19979;-44
2023/06/27 00:06:19;;;;;;;;;;;16.40;79.40;;;;;;5031102;28;19929;-44
2023/06/27 00:08:46;;;;;;;;;;;16.40;79.60;;;;;;5031599;28;20297;-43
2023/06/27 00:11:13;;;;;;;;;;;16.30;79.70;;;;;;5031800;28;19925;-44
2023/06/27 00:13:41;;;;;;;;;;;16.30;79.50;;;;;;5044973;28;19925;-44
2023/06/27 00:16:13;;;;;;;;;;;16.30;79.80;;;;;;5016556;28;19936;-43
2023/06/27 00:18:42;;;;;;;;;;;16.20;80.00;;;;;;5031188;28;19932;-43
2023/06/27 00:21:08;;;;;;;;;;;16.20;79.50;;;;;;5037481;28;20377;-44
2023/06/27 00:23:35;;;;;;;;;;;16.20;79.80;;;;;;5031125;28;19930;-44
2023/06/27 00:26:02;;;;;;;;;;;16.20;79.70;;;;;;5031451;28;20227;-44
2023/06/27 00:28:29;;;;;;;;;;;16.10;79.70;;;;;;5031627;28;20332;-44
2023/06/27 00:30:55;;;;;;;;;;;16.10;80.40;;;;;;5031622;28;19928;-43
2023/06/27 00:33:22;;;;;;;;;;;16.10;79.90;;;;;;5047012;28;19925;-44
2023/06/27 00:35:50;;;;;;;;;;;16.10;80.20;;;;;;5039536;28;19926;-43
2023/06/27 00:38:17;;;;;;;;;;;16.00;80.40;;;;;;5022973;28;19980;-43
2023/06/27 00:40:43;;;;;;;;;;;16.00;80.40;;;;;;5014130;28;19929;-43
2023/06/27 00:43:10;;;;;;;;;;;16.00;80.30;;;;;;5013886;28;19925;-44
2023/06/27 00:45:37;;;;;;;;;;;15.90;80.20;;;;;;5047274;28;19936;-44
2023/06/27 00:48:04;;;;;;;;;;;15.90;81.10;;;;;;5030630;28;19932;-44
2023/06/27 00:50:30;;;;;;;;;;;15.90;80.50;;;;;;5013821;28;20008;-43
2023/06/27 00:52:59;;;;;;;;;;;15.80;80.20;;;;;;5031320;28;19925;-44
2023/06/27 00:55:26;;;;;;;;;;;15.80;80.70;;;;;;5030853;28;19934;-45
2023/06/27 00:57:53;;;;;;;;;;;15.80;80.30;;;;;;5031339;28;19948;-44
2023/06/27 01:00:20;;;;;;;;;;;15.80;80.30;;;;;;5031065;28;20016;-44
2023/06/27 01:02:47;;;;;;;;;;;15.80;80.60;;;;;;5009666;28;19925;-44
2023/06/27 01:05:14;;;;;;;;;;;15.70;80.30;;;;;;5011348;28;19925;-45
2023/06/27 01:07:41;;;;;;;;;;;15.80;80.70;;;;;;5017976;28;19925;-43
2023/06/27 01:10:10;;;;;;;;;;;15.70;80.40;;;;;;5013603;28;20304;-43
2023/06/27 01:12:38;;;;;;;;;;;15.70;80.70;;;;;;5047568;28;20350;-44
2023/06/27 01:15:06;;;;;;;;;;;15.70;80.60;;;;;;5034725;28;19932;-44
2023/06/27 01:17:33;;;;;;;;;;;15.70;81.40;;;;;;5034303;28;20351;-44
2023/06/27 01:20:00;;;;;;;;;;;15.60;80.60;;;;;;5034501;28;19972;-44
2023/06/27 01:22:29;;;;;;;;;;;15.60;81.10;;;;;;5017171;28;19925;-44
2023/06/27 01:24:59;;;;;;;;;;;15.60;81.00;;;;;;5017196;28;20369;-44
2023/06/27 01:27:28;;;;;;;;;;;15.50;81.90;;;;;;5016747;28;19988;-44
2023/06/27 01:29:54;;;;;;;;;;;15.50;81.80;;;;;;5033615;28;19960;-44
2023/06/27 01:32:24;;;;;;;;;;;15.50;81.40;;;;;;5034219;28;19925;-45
2023/06/27 01:34:52;;;;;;;;;;;15.50;81.60;;;;;;5033980;28;19925;-45
2023/06/27 01:37:21;;;;;;;;;;;15.40;81.80;;;;;;5034497;28;19925;-44
2023/06/27 01:39:48;;;;;;;;;;;15.40;81.80;;;;;;5034508;28;19925;-44
2023/06/27 01:42:16;;;;;;;;;;;15.40;81.90;;;;;;5048679;28;19925;-44
2023/06/27 01:44:43;;;;;;;;;;;15.40;81.90;;;;;;5033391;28;20420;-44
2023/06/27 01:47:10;;;;;;;;;;;15.40;81.90;;;;;;5033969;28;19925;-42
2023/06/27 01:49:37;;;;;;;;;;;15.30;82.00;;;;;;5033899;28;19929;-43
2023/06/27 01:52:04;;;;;;;;;;;15.30;82.50;;;;;;5049112;28;20430;-43
2023/06/27 01:54:31;;;;;;;;;;;15.30;82.20;;;;;;5033781;28;19929;-43
2023/06/27 01:56:57;;;;;;;;;;;15.30;82.40;;;;;;5034121;28;19972;-43
2023/06/27 01:59:25;;;;;;;;;;;15.20;82.50;;;;;;5039831;28;20051;-43
2023/06/27 02:01:52;;;;;;;;;;;15.20;82.80;;;;;;5033014;28;19925;-44
2023/06/27 02:04:19;;;;;;;;;;;15.20;83.00;;;;;;5033569;28;19929;-43
2023/06/27 02:06:45;;;;;;;;;;;15.20;82.90;;;;;;5048747;28;19929;-44
2023/06/27 02:09:12;;;;;;;;;;;15.20;83.20;;;;;;5033659;28;19925;-44
2023/06/27 02:11:39;;;;;;;;;;;15.10;83.10;;;;;;5033584;28;19925;-44
2023/06/27 02:14:05;;;;;;;;;;;15.10;83.10;;;;;;5027513;28;20270;-44
2023/06/27 02:16:33;;;;;;;;;;;15.10;83.10;;;;;;5013591;28;19926;-42
2023/06/27 02:19:00;;;;;;;;;;;15.10;83.20;;;;;;5013555;28;19925;-44
2023/06/27 02:21:27;;;;;;;;;;;15.10;83.60;;;;;;5013541;28;20218;-42
2023/06/27 02:23:53;;;;;;;;;;;15.00;83.30;;;;;;5032506;28;20385;-44
2023/06/27 02:26:20;;;;;;;;;;;15.00;83.60;;;;;;5033247;28;19925;-43
2023/06/27 02:28:47;;;;;;;;;;;15.00;83.20;;;;;;5033129;28;19932;-43
2023/06/27 02:31:14;;;;;;;;;;;15.00;83.30;;;;;;5033458;28;19925;-44
2023/06/27 02:33:42;;;;;;;;;;;15.00;83.80;;;;;;5032756;28;20258;-43
2023/06/27 02:36:09;;;;;;;;;;;15.00;83.50;;;;;;5032958;28;20620;-43
2023/06/27 02:38:35;;;;;;;;;;;15.00;83.90;;;;;;5047913;28;19925;-43
2023/06/27 02:41:02;;;;;;;;;;;15.00;84.70;;;;;;5032709;28;20282;-43
2023/06/27 02:43:29;;;;;;;;;;;14.90;84.50;;;;;;5033064;28;19936;-43
2023/06/27 02:45:57;;;;;;;;;;;14.90;84.60;;;;;;5015126;28;20380;-43
2023/06/27 02:48:23;;;;;;;;;;;14.90;84.50;;;;;;5014954;28;19932;-44
2023/06/27 02:50:51;;;;;;;;;;;14.90;84.30;;;;;;5032988;28;19925;-44
2023/06/27 02:53:18;;;;;;;;;;;14.90;84.90;;;;;;5032812;28;19929;-43
2023/06/27 02:55:45;;;;;;;;;;;14.80;85.10;;;;;;5032516;28;20332;-42
2023/06/27 02:58:11;;;;;;;;;;;14.80;84.80;;;;;;5048361;28;19925;-43
2023/06/27 03:00:38;;;;;;;;;;;14.80;85.00;;;;;;5033079;28;19925;-44
2023/06/27 03:03:05;;;;;;;;;;;14.80;85.10;;;;;;5032564;28;20395;-44
2023/06/27 03:05:31;;;;;;;;;;;14.80;84.90;;;;;;5032696;28;19925;-43
2023/06/27 03:07:59;;;;;;;;;;;14.80;85.40;;;;;;5032178;28;20427;-44
2023/06/27 03:10:26;;;;;;;;;;;14.80;85.60;;;;;;5031957;28;19925;-43
2023/06/27 03:12:53;;;;;;;;;;;14.80;85.50;;;;;;5032353;28;19979;-44
2023/06/27 03:15:19;;;;;;;;;;;14.80;85.80;;;;;;5027097;28;20341;-43
2023/06/27 03:17:46;;;;;;;;;;;14.80;86.00;;;;;;5027603;28;19925;-44
2023/06/27 03:20:13;;;;;;;;;;;14.70;86.10;;;;;;5032380;28;19929;-43
2023/06/27 03:22:39;;;;;;;;;;;14.70;86.00;;;;;;5031048;28;20372;-43
2023/06/27 03:25:10;;;;;;;;;;;14.70;86.10;;;;;;5032270;28;19924;-43
2023/06/27 03:27:36;;;;;;;;;;;14.70;86.30;;;;;;5014411;28;19936;-44
2023/06/27 03:30:03;;;;;;;;;;;14.70;86.50;;;;;;5040174;28;20341;-44
2023/06/27 03:32:30;;;;;;;;;;;14.70;86.10;;;;;;5030294;28;19931;-43
2023/06/27 03:34:57;;;;;;;;;;;14.70;86.50;;;;;;5046678;28;19948;-43
2023/06/27 03:37:24;;;;;;;;;;;14.70;86.80;;;;;;5031627;28;19947;-44
2023/06/27 03:39:50;;;;;;;;;;;14.70;86.50;;;;;;5031403;28;19929;-43
2023/06/27 03:42:18;;;;;;;;;;;14.70;87.00;;;;;;5027918;28;20027;-44
2023/06/27 03:44:45;;;;;;;;;;;14.70;86.80;;;;;;5032145;28;20396;-44
2023/06/27 03:47:12;;;;;;;;;;;14.70;87.40;;;;;;5013624;28;19976;-44
2023/06/27 03:49:39;;;;;;;;;;;14.70;87.40;;;;;;5013257;28;19974;-44
2023/06/27 03:52:06;;;;;;;;;;;14.70;87.20;;;;;;5047466;28;19925;-44
2023/06/27 03:54:32;;;;;;;;;;;14.70;86.80;;;;;;5047482;28;20357;-43
2023/06/27 03:56:59;;;;;;;;;;;14.70;86.90;;;;;;5031604;28;19933;-43
2023/06/27 03:59:27;;;;;;;;;;;14.70;87.20;;;;;;5021528;28;19932;-44
2023/06/27 04:01:54;;;;;;;;;;;14.70;87.80;;;;;;5021805;28;19979;-44
2023/06/27 04:04:20;;;;;;;;;;;14.70;87.00;;;;;;5015171;28;20297;-42
2023/06/27 04:06:47;;;;;;;;;;;14.80;87.20;;;;;;5025654;28;19979;-44
2023/06/27 04:09:14;;;;;;;;;;;14.80;87.70;;;;;;5029778;28;19925;-44
2023/06/27 04:11:40;;;;;;;;;;;14.80;88.10;;;;;;5022145;28;19932;-43
2023/06/27 04:14:07;;;;;;;;;;;14.80;87.80;;;;;;5012446;28;19932;-43
2023/06/27 04:16:35;;;;;;;;;;;14.80;88.80;;;;;;5031099;28;19925;-44
2023/06/27 04:19:02;;;;;;;;;;;14.80;89.10;;;;;;5031248;28;20426;-44
2023/06/27 04:21:29;;;;;;;;;;;14.80;90.40;;;;;;5036538;28;19934;-42
2023/06/27 04:23:56;;;;;;;;;;;14.80;89.90;;;;;;5013092;28;19929;-43
2023/06/27 04:26:24;;;;;;;;;;;14.90;89.50;;;;;;5009688;28;19925;-44
2023/06/27 04:28:50;;;;;;;;;;;14.90;89.30;;;;;;5012513;28;19925;-44
2023/06/27 04:31:17;;;;;;;;;;;14.90;88.90;;;;;;5031253;28;19933;-44
2023/06/27 04:33:45;;;;;;;;;;;14.90;89.30;;;;;;5014117;28;19929;-44
2023/06/27 04:36:15;;;;;;;;;;;14.90;89.70;;;;;;5014412;28;19929;-44
2023/06/27 04:38:43;;;;;;;;;;;15.00;89.70;;;;;;5031996;28;19932;-43
2023/06/27 04:41:10;;;;;;;;;;;15.00;90.10;;;;;;5030953;28;19932;-44
2023/06/27 04:43:39;;;;;;;;;;;15.00;90.50;;;;;;5031432;28;19925;-43
2023/06/27 04:46:05;;;;;;;;;;;15.10;91.00;;;;;;5032767;28;19972;-43
2023/06/27 04:48:32;;;;;;;;;;;15.10;91.00;;;;;;5034993;28;20364;-43
2023/06/27 04:51:00;;;;;;;;;;;15.10;92.30;;;;;;5017917;28;19975;-43
2023/06/27 04:53:27;;;;;;;;;;;15.10;91.90;;;;;;5035211;28;19971;-44
2023/06/27 04:55:54;;;;;;;;;;;15.20;92.10;;;;;;5016778;28;19977;-43
2023/06/27 04:58:20;;;;;;;;;;;15.20;92.60;;;;;;5034985;28;19969;-43
2023/06/27 05:00:48;;;;;;;;;;;15.30;92.30;;;;;;5017232;28;20274;-45
2023/06/27 05:03:14;;;;;;;;;;;15.30;92.50;;;;;;5050800;28;19925;-44
2023/06/27 05:05:41;;;;;;;;;;;15.30;92.50;;;;;;5034954;28;19925;-44
2023/06/27 05:08:09;;;;;;;;;;;15.40;92.50;;;;;;5035037;28;19932;-43
2023/06/27 05:10:36;;;;;;;;;;;15.50;94.30;;;;;;5034426;28;19925;-45
2023/06/27 05:13:03;;;;;;;;;;;15.50;94.40;;;;;;5034736;28;20301;-44
2023/06/27 05:15:29;;;;;;;;;;;15.60;94.20;;;;;;5033045;28;20327;-44
2023/06/27 05:18:22;;;;;;;;;;;15.60;94.80;;;;;;5032056;28;19932;-43
2023/06/27 05:20:48;;;;;;;;;;;15.70;95.10;;;;;;5032345;28;19925;-42
2023/06/27 05:23:16;;;;;;;;;;;15.80;95.00;;;;;;5033079;28;19971;-44
2023/06/27 05:25:43;;;;;;;;;;;15.90;95.40;;;;;;5049986;28;19987;-44
2023/06/27 05:28:10;;;;;;;;;;;16.00;95.80;;;;;;5040077;28;19925;-44
2023/06/27 05:30:36;;;;;;;;;;;16.10;96.80;;;;;;5054201;28;19929;-44
2023/06/27 05:33:03;;;;;;;;;;;16.30;96.90;;;;;;5069883;28;19933;-44
2023/06/27 05:35:30;;;;;;;;;;;16.30;97.30;;;;;;5050383;28;20360;-43
2023/06/27 05:37:57;;;;;;;;;;;16.50;98.30;;;;;;5033941;28;19951;-43
2023/06/27 05:40:25;;;;;;;;;;;16.60;98.60;;;;;;5033955;28;20297;-45
2023/06/27 05:42:52;;;;;;;;;;;16.70;98.60;;;;;;5034081;28;19925;-44
2023/06/27 05:45:19;;;;;;;;;;;16.80;98.10;;;;;;5041555;28;20023;-42
2023/06/27 05:47:45;;;;;;;;;;;16.90;97.60;;;;;;5037604;28;19925;-42
2023/06/27 05:50:12;;;;;;;;;;;17.10;98.10;;;;;;5032138;28;19932;-43
2023/06/27 05:52:39;;;;;;;;;;;17.10;98.00;;;;;;5032934;28;19932;-43
2023/06/27 05:55:06;;;;;;;;;;;17.30;98.40;;;;;;5014967;28;19929;-44
2023/06/27 05:57:34;;;;;;;;;;;17.40;98.90;;;;;;5032122;28;19929;-43
2023/06/27 06:00:01;;;;;;;;;;;17.50;99.20;;;;;;5021720;28;20309;-44
2023/06/27 06:02:28;;;;;;;;;;;17.70;98.90;;;;;;5031860;28;20291;-44
2023/06/27 06:04:55;;;;;;;;;;;17.80;98.30;;;;;;5014241;28;20381;-42
2023/06/27 06:07:23;;;;;;;;;;;17.90;98.40;;;;;;5027178;28;19932;-44
2023/06/27 06:09:50;;;;;;;;;;;18.00;98.20;;;;;;5030906;28;19925;-43
2023/06/27 06:12:16;;;;;;;;;;;18.20;97.50;;;;;;5023323;28;19936;-43
2023/06/27 06:14:45;;;;;;;;;;;18.30;97.50;;;;;;5030639;28;19929;-43
2023/06/27 06:17:11;;;;;;;;;;;18.50;97.90;;;;;;5012924;28;19940;-45
2023/06/27 06:19:38;;;;;;;;;;;18.60;96.80;;;;;;5031586;28;19929;-44
2023/06/27 06:22:05;;;;;;;;;;;18.70;96.90;;;;;;5014064;28;20341;-44
2023/06/27 06:24:32;;;;;;;;;;;18.90;96.90;;;;;;5031621;28;19925;-42
2023/06/27 06:26:58;;;;;;;;;;;19.00;96.40;;;;;;5031555;28;19929;-43
2023/06/27 06:29:25;;;;;;;;;;;19.10;96.60;;;;;;5045308;28;19936;-43
2023/06/27 06:31:53;;;;;;;;;;;19.30;96.30;;;;;;5014073;28;19933;-43
2023/06/27 06:34:20;;;;;;;;;;;19.50;95.80;;;;;;5044945;28;19940;-42
2023/06/27 06:36:47;;;;;;;;;;;19.60;94.60;;;;;;5031951;28;19933;-44
2023/06/27 06:39:13;;;;;;;;;;;19.80;94.20;;;;;;5030919;28;20348;-44
2023/06/27 06:41:40;;;;;;;;;;;19.90;93.10;;;;;;5031803;28;19932;-44
2023/06/27 06:44:07;;;;;;;;;;;20.00;92.20;;;;;;5012880;28;19925;-43
2023/06/27 06:46:35;;;;;;;;;;;20.20;91.80;;;;;;5014104;28;19929;-44
2023/06/27 06:49:03;;;;;;;;;;;20.40;91.70;;;;;;5031448;28;19948;-42
2023/06/27 06:51:29;;;;;;;;;;;20.60;91.50;;;;;;5013996;28;19925;-44
2023/06/27 06:53:56;;;;;;;;;;;20.80;90.80;;;;;;5031310;28;19925;-43
2023/06/27 06:56:23;;;;;;;;;;;20.90;90.20;;;;;;5014120;28;19925;-44
2023/06/27 06:58:50;;;;;;;;;;;21.10;89.40;;;;;;5013757;28;20292;-44
2023/06/27 07:01:16;;;;;;;;;;;21.30;87.40;;;;;;5030705;28;19925;-42
2023/06/27 07:03:43;;;;;;;;;;;21.40;87.60;;;;;;5013761;28;19975;-44
2023/06/27 07:06:11;;;;;;;;;;;21.50;86.80;;;;;;5031438;28;20009;-43
2023/06/27 07:08:38;;;;;;;;;;;21.60;86.70;;;;;;5031513;28;19967;-44
2023/06/27 07:11:05;;;;;;;;;;;21.60;86.40;;;;;;5014000;28;20269;-45
2023/06/27 07:13:32;;;;;;;;;;;21.70;85.90;;;;;;5015743;28;19997;-43
2023/06/27 07:15:58;;;;;;;;;;;21.70;85.40;;;;;;4994134;28;19990;-45
2023/06/27 07:18:25;;;;;;;;;;;21.80;84.00;;;;;;4995440;28;19944;-43
2023/06/27 07:20:52;;;;;;;;;;;21.90;83.90;;;;;;5030703;28;19951;-43
2023/06/27 07:23:20;;;;;;;;;;;21.90;84.70;;;;;;5031139;28;20300;-43
2023/06/27 07:25:46;;;;;;;;;;;22.10;83.50;;;;;;5031385;28;19925;-45
2023/06/27 07:28:13;;;;;;;;;;;22.20;82.20;;;;;;5031314;28;19931;-45
2023/06/27 07:30:45;;;;;;;;;;;22.30;82.60;;;;;;5031065;28;20177;-42
2023/06/27 07:33:12;;;;;;;;;;;22.40;82.90;;;;;;5031137;28;19929;-45
2023/06/27 07:35:38;;;;;;;;;;;22.60;81.50;;;;;;5012673;28;19925;-45
2023/06/27 07:38:05;;;;;;;;;;;22.80;80.30;;;;;;5029913;28;19987;-43
2023/06/27 07:40:35;;;;;;;;;;;22.90;79.00;;;;;;5029744;28;20387;-44
2023/06/27 07:43:01;;;;;;;;;;;22.90;79.20;;;;;;5013446;28;19929;-44
2023/06/27 07:45:29;;;;;;;;;;;22.90;78.10;;;;;;5013458;28;19929;-43
2023/06/27 07:47:56;;;;;;;;;;;22.90;77.90;;;;;;5030009;28;19965;-43
2023/06/27 07:50:22;;;;;;;;;;;22.90;77.90;;;;;;5030434;28;19925;-44
2023/06/27 07:52:49;;;;;;;;;;;22.90;76.30;;;;;;5046083;28;19925;-44
2023/06/27 07:55:16;;;;;;;;;;;23.00;77.40;;;;;;5046239;28;20313;-44
2023/06/27 07:57:44;;;;;;;;;;;23.00;78.30;;;;;;5029871;28;19925;-42
2023/06/27 08:00:12;;;;;;;;;;;23.10;76.70;;;;;;5012779;28;19932;-44
2023/06/27 08:02:39;;;;;;;;;;;23.00;75.10;;;;;;5030540;28;19972;-45
2023/06/27 08:05:06;;;;;;;;;;;23.00;76.10;;;;;;5030277;28;19932;-44
2023/06/27 08:07:33;;;;;;;;;;;22.90;74.70;;;;;;5012343;28;19935;-43
2023/06/27 08:10:00;;;;;;;;;;;22.70;74.70;;;;;;5012247;28;19982;-44
2023/06/27 08:12:26;;;;;;;;;;;22.70;75.00;;;;;;5023849;28;20273;-45
2023/06/27 08:14:54;;;;;;;;;;;22.70;75.50;;;;;;5016139;28;19956;-43
2023/06/27 08:17:21;;;;;;;;;;;22.70;75.80;;;;;;5029935;28;19983;-43
2023/06/27 08:19:48;;;;;;;;;;;22.70;75.80;;;;;;5030780;28;19925;-44
2023/06/27 08:22:14;;;;;;;;;;;22.80;75.90;;;;;;5046257;28;19955;-45
2023/06/27 08:24:41;;;;;;;;;;;22.90;75.00;;;;;;5034163;28;20372;-43
2023/06/27 08:27:08;;;;;;;;;;;22.90;74.40;;;;;;5034320;28;19925;-43
2023/06/27 08:29:35;;;;;;;;;;;23.10;74.10;;;;;;5015866;28;19976;-45
2023/06/27 08:32:03;;;;;;;;;;;23.30;73.10;;;;;;5014802;28;20015;-44
2023/06/27 08:34:31;;;;;;;;;;;23.40;74.60;;;;;;5002619;28;20028;-43
2023/06/27 08:36:58;;;;;;;;;;;23.60;73.00;;;;;;5032382;28;20407;-44
2023/06/27 08:39:25;;;;;;;;;;;23.80;69.80;;;;;;5033123;28;20391;-43
2023/06/27 08:41:52;;;;;;;;;;;23.90;72.20;;;;;;5034265;28;19987;-43
2023/06/27 08:44:18;;;;;;;;;;;24.10;71.30;;;;;;5033368;28;19925;-42
2023/06/27 08:46:45;;;;;;;;;;;24.10;70.40;;;;;;5033565;28;19932;-45
2023/06/27 08:49:14;;;;;;;;;;;24.20;71.50;;;;;;5015579;28;20010;-44
2023/06/27 08:51:41;;;;;;;;;;;24.40;71.30;;;;;;5033119;28;19925;-43
2023/06/27 08:54:10;;;;;;;;;;;24.70;72.10;;;;;;5033746;28;19925;-43
2023/06/27 08:56:38;;;;;;;;;;;24.90;69.70;;;;;;5015850;28;19932;-44
2023/06/27 08:59:07;;;;;;;;;;;25.00;70.10;;;;;;5033514;28;19948;-44
2023/06/27 09:01:34;;;;;;;;;;;25.00;70.10;;;;;;5033402;28;20307;-45
2023/06/27 09:04:01;;;;;;;;;;;25.00;68.30;;;;;;5033285;28;19929;-45
2023/06/27 09:06:29;;;;;;;;;;;25.00;69.40;;;;;;5032095;28;19929;-45
2023/06/27 09:08:56;;;;;;;;;;;24.90;69.50;;;;;;5033434;28;20016;-45
2023/06/27 09:11:23;;;;;;;;;;;24.80;69.80;;;;;;5033212;28;19925;-43
2023/06/27 09:13:49;;;;;;;;;;;24.80;69.20;;;;;;5030886;28;20340;-44
2023/06/27 09:16:16;;;;;;;;;;;24.70;69.70;;;;;;5048114;28;19925;-44
2023/06/27 09:18:43;;;;;;;;;;;24.70;69.00;;;;;;5032638;28;19968;-43
2023/06/27 09:21:10;;;;;;;;;;;24.60;69.00;;;;;;5011020;28;19929;-44
2023/06/27 09:23:38;;;;;;;;;;;24.70;69.10;;;;;;5031035;28;20373;-43
2023/06/27 09:26:08;;;;;;;;;;;24.70;69.30;;;;;;5032741;28;20281;-43
2023/06/27 09:28:45;;;;;;;;;;;24.70;69.30;;;;;;5033280;28;19931;-44
2023/06/27 09:31:12;;;;;;;;;;;24.80;69.70;;;;;;5033121;28;20055;-44
2023/06/27 09:33:39;;;;;;;;;;;24.90;69.90;;;;;;5013055;28;19929;-45
2023/06/27 09:36:06;;;;;;;;;;;24.90;69.10;;;;;;5031438;28;19929;-44
2023/06/27 09:38:33;;;;;;;;;;;24.90;69.60;;;;;;5014161;28;19944;-44
2023/06/27 09:41:04;;;;;;;;;;;24.80;68.70;;;;;;5012205;28;20103;-44
2023/06/27 09:43:32;;;;;;;;;;;24.70;68.80;;;;;;5029539;28;19944;-44
2023/06/27 09:45:59;;;;;;;;;;;24.70;70.20;;;;;;5030518;28;19932;-43
2023/06/27 09:48:26;;;;;;;;;;;24.90;70.60;;;;;;5022510;28;20004;-45
2023/06/27 09:50:56;;;;;;;;;;;25.00;70.30;;;;;;5032805;28;20347;-45
2023/06/27 09:53:22;;;;;;;;;;;25.10;69.20;;;;;;5031814;28;20557;-45
2023/06/27 09:55:49;;;;;;;;;;;25.10;68.50;;;;;;5032577;28;19971;-45
2023/06/27 09:58:20;;;;;;;;;;;25.10;69.60;;;;;;5042539;28;19929;-44
2023/06/27 10:00:47;;;;;;;;;;;25.10;69.50;;;;;;5030243;28;19971;-44
2023/06/27 10:03:13;;;;;;;;;;;25.10;69.60;;;;;;5014275;28;19935;-45
2023/06/27 10:05:40;;;;;;;;;;;25.00;70.50;;;;;;5028624;28;19933;-44
2023/06/27 10:08:09;;;;;;;;;;;25.10;68.70;;;;;;5025450;28;19925;-43
2023/06/27 10:10:35;;;;;;;;;;;25.10;69.70;;;;;;5010599;28;19925;-44
2023/06/27 10:13:02;;;;;;;;;;;25.10;69.90;;;;;;5013902;28;19929;-42
2023/06/27 10:15:30;;;;;;;;;;;25.20;69.80;;;;;;5030405;28;20348;-42
2023/06/27 10:17:57;;;;;;;;;;;25.20;69.40;;;;;;5028475;28;20276;-44
2023/06/27 10:20:23;;;;;;;;;;;25.20;68.30;;;;;;5008892;28;19929;-45
2023/06/27 10:22:50;;;;;;;;;;;25.20;69.40;;;;;;5032175;28;20325;-45
2023/06/27 10:25:17;;;;;;;;;;;25.20;68.70;;;;;;5012630;28;19925;-45
2023/06/27 10:27:44;;;;;;;;;;;25.20;68.70;;;;;;5012547;28;19929;-43
2023/06/27 10:30:14;;;;;;;;;;;25.20;69.10;;;;;;5031845;28;19931;-45
2023/06/27 10:32:44;;;;;;;;;;;25.20;68.90;;;;;;5031052;28;19925;-45
2023/06/27 10:35:11;;;;;;;;;;;25.30;68.50;;;;;;5029136;28;20026;-45
2023/06/27 10:37:39;;;;;;;;;;;25.50;68.60;;;;;;5029624;28;20313;-45
2023/06/27 10:40:08;;;;;;;;;;;25.60;66.20;;;;;;5029937;28;19943;-42
2023/06/27 10:42:34;;;;;;;;;;;25.50;66.30;;;;;;5002998;28;19925;-45
2023/06/27 10:45:02;;;;;;;;;;;25.30;66.60;;;;;;5026884;28;19930;-44
2023/06/27 10:47:30;;;;;;;;;;;25.30;67.60;;;;;;5021561;28;19925;-44
2023/06/27 10:50:03;;;;;;;;;;;25.40;68.70;;;;;;5030067;28;19925;-43
2023/06/27 10:52:30;;;;;;;;;;;25.50;66.60;;;;;;5025104;28;19925;-44
2023/06/27 10:55:15;;;;;;;;;;;25.60;67.20;;;;;;5029272;28;19924;-44
2023/06/27 10:57:43;;;;;;;;;;;25.50;68.10;;;;;;5028178;28;19937;-45
2023/06/27 11:00:13;;;;;;;;;;;25.50;67.80;;;;;;5026511;28;19932;-44
2023/06/27 11:02:41;;;;;;;;;;;25.50;67.50;;;;;;5028970;28;19925;-44
2023/06/27 11:05:12;;;;;;;;;;;25.70;67.00;;;;;;5034616;28;20399;-44
2023/06/27 11:07:39;;;;;;;;;;;25.70;66.20;;;;;;5023247;28;20016;-46
2023/06/27 11:10:11;;;;;;;;;;;25.80;66.90;;;;;;5030296;28;19959;-45
2023/06/27 11:12:38;;;;;;;;;;;25.90;66.60;;;;;;5030260;28;20041;-45
2023/06/27 11:15:05;;;;;;;;;;;26.10;65.80;;;;;;5003832;28;19937;-45
2023/06/27 11:17:35;;;;;;;;;;;26.00;65.30;;;;;;5008480;28;19978;-44
2023/06/27 11:20:02;;;;;;;;;;;26.00;66.10;;;;;;5021910;28;19925;-46
2023/06/27 11:22:30;;;;;;;;;;;26.00;66.40;;;;;;5004500;28;20599;-44
2023/06/27 11:24:58;;;;;;;;;;;26.00;65.90;;;;;;5010528;28;20289;-43
2023/06/27 11:27:29;;;;;;;;;;;25.80;66.60;;;;;;5030096;28;19932;-45
2023/06/27 11:29:57;;;;;;;;;;;25.70;66.60;;;;;;5008772;28;19932;-44
2023/06/27 11:32:25;;;;;;;;;;;25.50;66.10;;;;;;5030372;28;20282;-44
2023/06/27 11:34:51;;;;;;;;;;;25.30;66.90;;;;;;5011805;28;19925;-44
2023/06/27 11:37:18;;;;;;;;;;;25.20;66.90;;;;;;5030942;28;19925;-44
2023/06/27 11:39:53;;;;;;;;;;;25.00;67.70;;;;;;5012686;28;19929;-44
2023/06/27 11:42:31;;;;;;;;;;;25.00;68.20;;;;;;5031106;28;19925;-43
2023/06/27 11:44:58;;;;;;;;;;;25.10;68.60;;;;;;5012115;28;20266;-44
2023/06/27 11:47:24;;;;;;;;;;;25.10;68.40;;;;;;5010504;28;19925;-45
2023/06/27 11:49:51;;;;;;;;;;;25.10;68.40;;;;;;5042497;28;19925;-45
2023/06/27 11:52:18;;;;;;;;;;;25.20;68.00;;;;;;5028731;28;19936;-44
2023/06/27 11:54:48;;;;;;;;;;;25.40;68.30;;;;;;5045597;28;20039;-45
2023/06/27 11:57:17;;;;;;;;;;;25.60;68.50;;;;;;5012159;28;19925;-46
2023/06/27 11:59:44;;;;;;;;;;;25.80;67.90;;;;;;5017649;28;20289;-44
2023/06/27 12:02:11;;;;;;;;;;;25.90;67.00;;;;;;5023623;28;19925;-45
2023/06/27 12:04:37;;;;;;;;;;;26.10;67.30;;;;;;5031162;28;19999;-44
2023/06/27 12:07:16;;;;;;;;;;;26.30;67.10;;;;;;5011171;28;19936;-45
2023/06/27 12:09:43;;;;;;;;;;;26.40;66.00;;;;;;5011387;28;19964;-44
2023/06/27 12:12:10;;;;;;;;;;;26.40;66.60;;;;;;5011827;28;20328;-43
2023/06/27 12:14:38;;;;;;;;;;;26.40;66.10;;;;;;5011848;28;19932;-43
2023/06/27 12:17:05;;;;;;;;;;;26.30;65.80;;;;;;5010282;28;20461;-44
2023/06/27 12:19:31;;;;;;;;;;;26.30;65.60;;;;;;5008043;28;19941;-43
2023/06/27 12:21:59;;;;;;;;;;;26.30;65.70;;;;;;5028751;28;20278;-44
2023/06/27 12:24:25;;;;;;;;;;;26.20;64.70;;;;;;5030354;28;20435;-45
2023/06/27 12:26:52;;;;;;;;;;;26.20;65.10;;;;;;5028796;28;19925;-43
2023/06/27 12:29:19;;;;;;;;;;;26.20;63.40;;;;;;5017017;28;20016;-43
2023/06/27 12:31:47;;;;;;;;;;;26.30;64.60;;;;;;5026565;28;20340;-44
2023/06/27 12:34:13;;;;;;;;;;;26.40;64.80;;;;;;5027451;28;19999;-45
2023/06/27 12:36:40;;;;;;;;;;;26.60;64.40;;;;;;5028284;28;19925;-44
2023/06/27 12:39:07;;;;;;;;;;;26.70;62.40;;;;;;5011144;28;19933;-43
2023/06/27 12:41:34;;;;;;;;;;;26.70;61.50;;;;;;5030363;28;19951;-43
2023/06/27 12:44:00;;;;;;;;;;;26.60;62.20;;;;;;5012902;28;19976;-43
2023/06/27 12:46:27;;;;;;;;;;;26.40;62.50;;;;;;5005966;28;19925;-44
2023/06/27 12:48:55;;;;;;;;;;;26.40;61.80;;;;;;5008723;28;19929;-44
2023/06/27 12:51:22;;;;;;;;;;;26.20;61.70;;;;;;5029580;28;19929;-43
2023/06/27 12:53:48;;;;;;;;;;;26.10;63.10;;;;;;5014013;28;20284;-45
2023/06/27 12:56:15;;;;;;;;;;;26.10;63.60;;;;;;5031504;28;19987;-44
2023/06/27 12:58:45;;;;;;;;;;;26.10;63.60;;;;;;5013635;28;19925;-45
2023/06/27 13:01:12;;;;;;;;;;;26.10;63.00;;;;;;5013751;28;19925;-45
2023/06/27 13:03:39;;;;;;;;;;;26.10;62.00;;;;;;5013643;28;20242;-45
2023/06/27 13:06:07;;;;;;;;;;;26.00;62.30;;;;;;5030688;28;19964;-45
2023/06/27 13:08:33;;;;;;;;;;;26.10;63.10;;;;;;5031589;28;20042;-45
2023/06/27 13:11:00;;;;;;;;;;;26.10;62.40;;;;;;5017470;28;19925;-45
2023/06/27 13:13:28;;;;;;;;;;;26.10;62.80;;;;;;5034670;28;19925;-45
2023/06/27 13:15:55;;;;;;;;;;;26.00;63.30;;;;;;5017373;28;19932;-45
2023/06/27 13:18:22;;;;;;;;;;;26.10;62.70;;;;;;5016756;28;19925;-45
2023/06/27 13:20:49;;;;;;;;;;;26.00;63.40;;;;;;5017373;28;19929;-45
2023/06/27 13:23:17;;;;;;;;;;;26.10;64.20;;;;;;5034084;28;20400;-44
2023/06/27 13:25:44;;;;;;;;;;;26.20;64.10;;;;;;5016863;28;19929;-43
2023/06/27 13:28:10;;;;;;;;;;;26.30;63.80;;;;;;5033599;28;19932;-45
2023/06/27 13:30:37;;;;;;;;;;;26.30;62.90;;;;;;5015234;28;20009;-45
2023/06/27 13:33:04;;;;;;;;;;;26.20;62.20;;;;;;5015291;28;19929;-44
2023/06/27 13:35:30;;;;;;;;;;;26.10;62.10;;;;;;5034071;28;19925;-44
2023/06/27 13:37:58;;;;;;;;;;;26.10;60.70;;;;;;5033545;28;19933;-44
2023/06/27 13:40:26;;;;;;;;;;;26.10;62.60;;;;;;5031982;28;19925;-45
2023/06/27 13:42:53;;;;;;;;;;;26.20;63.10;;;;;;5021009;28;19925;-45
2023/06/27 13:45:19;;;;;;;;;;;26.30;61.40;;;;;;5002065;28;19971;-44
2023/06/27 13:47:46;;;;;;;;;;;26.30;61.90;;;;;;5017097;28;19968;-44
2023/06/27 13:50:13;;;;;;;;;;;26.30;62.00;;;;;;5015572;28;19933;-45
2023/06/27 13:52:39;;;;;;;;;;;26.30;62.20;;;;;;5031730;28;19925;-44
2023/06/27 13:55:06;;;;;;;;;;;26.30;61.20;;;;;;5005153;28;19941;-44
2023/06/27 13:57:34;;;;;;;;;;;26.20;63.20;;;;;;5028392;28;19929;-44
2023/06/27 14:00:01;;;;;;;;;;;26.30;63.40;;;;;;5048700;28;20343;-44
2023/06/27 14:02:28;;;;;;;;;;;26.30;63.00;;;;;;5033404;28;19929;-44
2023/06/27 14:04:55;;;;;;;;;;;26.30;63.10;;;;;;5033552;28;19929;-44
2023/06/27 14:07:22;;;;;;;;;;;26.40;61.70;;;;;;5031798;28;20024;-42
2023/06/27 14:09:49;;;;;;;;;;;26.40;62.30;;;;;;5033247;28;20227;-44
2023/06/27 14:12:17;;;;;;;;;;;26.30;62.70;;;;;;5031241;28;19932;-44
2023/06/27 14:14:45;;;;;;;;;;;26.40;62.60;;;;;;5032013;28;20015;-44
2023/06/27 14:17:11;;;;;;;;;;;26.40;63.10;;;;;;5045235;28;19964;-45